Time;durP1;ratioP1;P1;durP2;ratioP2;P2;SDS_P1;SDS_P2;PMS_P1;PMS_P2;Temp;Humidity;BMP_temperature;BMP_pressure;BME280_temperature;BME280_humidity;BME280_pressure;Samples;Min_cycle;Max_cycle;Signal;HPM_P1;HPM_P2
2021/12/31 00:00:18;;;;;;;6.35;2.70;;;;;;;14.49;100.00;100833.53;4991561;28;20018;-65
2021/12/31 00:02:43;;;;;;;4.00;2.15;;;;;;;14.45;100.00;100823.84;4995025;28;20026;-66
2021/12/31 00:05:10;;;;;;;4.20;2.45;;;;;;;14.37;100.00;100817.91;4991573;28;20043;-66
2021/12/31 00:07:35;;;;;;;8.02;2.40;;;;;;;14.35;100.00;100807.25;4995074;28;20033;-66
2021/12/31 00:10:01;;;;;;;6.78;1.95;;;;;;;14.35;100.00;100820.63;4992441;28;20469;-66
2021/12/31 00:12:28;;;;;;;3.42;1.98;;;;;;;14.30;100.00;100816.38;4992854;28;20026;-66
2021/12/31 00:14:53;;;;;;;3.78;2.22;;;;;;;14.24;100.00;100822.78;4993778;28;20034;-66
2021/12/31 00:17:18;;;;;;;4.55;2.10;;;;;;;14.24;100.00;100816.56;4993199;28;20081;-66
2021/12/31 00:19:46;;;;;;;5.38;2.65;;;;;;;14.22;100.00;100823.75;5008933;28;20093;-66
2021/12/31 00:24:46;;;;;;;4.15;2.40;;;;;;;14.15;100.00;100823.09;5008457;28;20030;-66
2021/12/31 00:27:12;;;;;;;6.80;2.13;;;;;;;14.13;100.00;100816.06;4991760;28;20429;-66
2021/12/31 00:29:37;;;;;;;6.28;2.38;;;;;;;14.11;100.00;100815.22;4992228;28;20256;-66
2021/12/31 00:32:03;;;;;;;3.80;2.22;;;;;;;14.08;100.00;100820.69;4994244;28;20022;-66
2021/12/31 00:34:28;;;;;;;32.65;4.78;;;;;;;14.01;100.00;100819.16;4991515;28;20059;-66
2021/12/31 00:36:53;;;;;;;18.65;3.72;;;;;;;13.96;100.00;100813.97;4993911;28;20027;-66
2021/12/31 00:39:25;;;;;;;5.47;3.08;;;;;;;13.88;100.00;100812.47;4999861;28;20474;-65
2021/12/31 00:41:50;;;;;;;5.43;2.28;;;;;;;13.85;100.00;100809.88;4992603;28;20026;-65
2021/12/31 00:44:16;;;;;;;5.68;2.70;;;;;;;13.81;100.00;100810.91;4995136;28;20549;-65
2021/12/31 00:46:41;;;;;;;4.90;2.50;;;;;;;13.71;100.00;100804.09;4991051;28;20037;-65
2021/12/31 00:49:06;;;;;;;5.57;2.42;;;;;;;13.71;100.00;100798.75;4994036;28;20080;-65
2021/12/31 00:51:33;;;;;;;8.13;2.70;;;;;;;13.65;100.00;100799.84;4999086;28;20034;-65
2021/12/31 00:54:00;;;;;;;5.40;2.22;;;;;;;13.63;100.00;100801.69;5011278;28;20026;-65
2021/12/31 00:56:25;;;;;;;3.40;1.77;;;;;;;13.52;100.00;100789.59;4994033;28;20510;-65
2021/12/31 00:58:51;;;;;;;3.95;2.55;;;;;;;13.50;100.00;100796.78;4990499;28;20050;-65
2021/12/31 01:01:19;;;;;;;4.97;2.25;;;;;;;13.46;100.00;100788.00;4994063;28;20113;-65
2021/12/31 01:03:45;;;;;;;5.28;2.55;;;;;;;13.37;100.00;100776.72;4991913;28;20106;-65
2021/12/31 01:06:10;;;;;;;6.80;2.58;;;;;;;13.39;100.00;100785.56;4990877;28;20125;-65
2021/12/31 01:08:36;;;;;;;4.57;2.72;;;;;;;13.35;100.00;100789.25;5000443;28;20445;-65
2021/12/31 01:11:01;;;;;;;3.63;1.90;;;;;;;13.32;100.00;100792.03;4992761;28;20097;-65
2021/12/31 01:13:35;;;;;;;4.80;2.60;;;;;;;13.28;100.00;100796.59;4990202;28;20038;-65
2021/12/31 01:16:02;;;;;;;;;;;;;;;13.21;100.00;100792.38;4991442;28;20028;-66
2021/12/31 01:21:12;;;;;;;6.05;2.58;;;;;;;13.15;100.00;100801.44;4999501;28;20046;-66
2021/12/31 01:23:38;;;;;;;12.70;2.90;;;;;;;13.11;100.00;100805.13;4990363;28;20030;-66
2021/12/31 01:26:03;;;;;;;5.03;2.33;;;;;;;13.07;100.00;100784.78;4999034;28;20401;-66
2021/12/31 01:28:29;;;;;;;6.05;2.40;;;;;;;13.07;100.00;100811.50;4991865;28;20072;-66
2021/12/31 01:30:54;;;;;;;3.88;2.40;;;;;;;13.06;100.00;100807.06;4990123;28;20062;-66
2021/12/31 01:33:20;;;;;;;4.35;2.20;;;;;;;13.02;100.00;100808.09;4993059;28;20077;-66
2021/12/31 01:35:45;;;;;;;3.88;2.05;;;;;;;12.98;100.00;100805.53;4991447;28;20026;-66
2021/12/31 01:38:11;;;;;;;5.00;2.38;;;;;;;12.85;100.00;100788.13;4995714;28;20022;-66
2021/12/31 01:40:36;;;;;;;5.82;2.60;;;;;;;12.87;100.00;100808.50;4994705;28;20026;-66
2021/12/31 01:43:02;;;;;;;5.75;2.83;;;;;;;12.79;100.00;100805.19;4990990;28;20052;-66
2021/12/31 01:45:32;;;;;;;7.30;3.00;;;;;;;12.71;100.00;100799.19;4991448;28;20033;-66
2021/12/31 01:48:05;;;;;;;8.57;3.45;;;;;;;12.67;100.00;100799.31;4997815;28;20450;-66
2021/12/31 01:50:31;;;;;;;14.88;4.10;;;;;;;12.64;100.00;100807.41;4999639;28;20121;-65
2021/12/31 01:52:58;;;;;;;9.07;4.03;;;;;;;12.62;100.00;100815.44;4992804;28;20112;-65
2021/12/31 01:55:29;;;;;;;14.35;5.03;;;;;;;12.59;100.00;100812.00;4990141;28;20115;-65
2021/12/31 01:57:55;;;;;;;17.33;5.10;;;;;;;12.61;100.00;100805.72;4993393;28;20034;-65
2021/12/31 02:00:21;;;;;;;14.50;4.68;;;;;;;12.59;100.00;100812.00;4991765;28;20042;-65
2021/12/31 02:02:48;;;;;;;15.10;3.50;;;;;;;12.57;100.00;100813.84;4998271;28;20096;-65
2021/12/31 02:05:14;;;;;;;6.57;3.40;;;;;;;12.57;100.00;100820.03;4992576;28;20129;-65
2021/12/31 02:07:40;;;;;;;5.03;2.50;;;;;;;12.58;100.00;100818.25;4998665;28;20409;-65
2021/12/31 02:10:07;;;;;;;9.10;3.35;;;;;;;12.52;100.00;100805.09;4990246;28;20026;-65
2021/12/31 02:12:33;;;;;;;8.60;4.13;;;;;;;12.51;100.00;100809.56;4991097;28;20177;-65
2021/12/31 02:14:59;;;;;;;7.47;3.40;;;;;;;12.41;100.00;100804.50;4991522;28;20026;-65
2021/12/31 02:17:25;;;;;;;10.50;4.22;;;;;;;12.44;100.00;100810.63;4989992;28;20038;-65
2021/12/31 02:20:04;;;;;;;6.95;3.25;;;;;;;12.43;100.00;100806.22;5009104;28;20383;-65
2021/12/31 02:22:29;;;;;;;9.45;3.75;;;;;;;12.43;100.00;100811.56;5003088;28;20080;-65
2021/12/31 02:24:57;;;;;;;7.30;3.63;;;;;;;12.39;100.00;100804.53;4989805;28;20057;-65
2021/12/31 02:27:24;;;;;;;6.35;3.00;;;;;;;12.43;100.00;100803.56;4989669;28;20019;-65
2021/12/31 02:29:50;;;;;;;6.18;2.60;;;;;;;12.42;100.00;100798.25;4990532;28;20310;-65
2021/12/31 02:32:16;;;;;;;5.80;2.65;;;;;;;12.36;100.00;100799.28;4992873;28;20034;-65
2021/12/31 02:34:41;;;;;;;8.95;2.97;;;;;;;12.36;100.00;100787.75;4989278;28;20367;-65
2021/12/31 02:37:07;;;;;;;6.35;3.33;;;;;;;12.32;100.00;100792.28;4991579;28;20034;-65
2021/12/31 02:39:34;;;;;;;7.43;2.95;;;;;;;12.34;100.00;100794.94;5000771;28;20088;-65
2021/12/31 02:42:00;;;;;;;22.05;4.45;;;;;;;12.28;100.00;100795.06;4992958;28;20112;-65
2021/12/31 02:44:25;;;;;;;4.82;2.45;;;;;;;12.27;100.00;100783.56;4989361;28;20113;-65
2021/12/31 02:46:50;;;;;;;5.97;2.88;;;;;;;12.27;100.00;100788.91;4992576;28;20026;-65
2021/12/31 02:49:19;;;;;;;6.63;3.15;;;;;;;12.23;100.00;100779.22;4992099;28;20113;-65
2021/12/31 02:51:44;;;;;;;3.80;2.20;;;;;;;12.20;100.00;100776.63;5005712;28;20394;-65
2021/12/31 02:54:12;;;;;;;4.03;1.88;;;;;;;12.16;100.00;100772.28;5002060;28;20057;-65
2021/12/31 02:56:38;;;;;;;4.95;2.40;;;;;;;12.10;100.00;100764.47;4989603;28;20034;-66
2021/12/31 02:59:04;;;;;;;4.38;2.03;;;;;;;12.14;100.00;100773.25;4998002;28;20030;-65
2021/12/31 03:01:30;;;;;;;5.47;2.42;;;;;;;12.11;100.00;100771.53;4988893;28;20041;-66
2021/12/31 03:03:56;;;;;;;8.40;2.50;;;;;;;12.09;100.00;100773.38;4992031;28;20514;-66
2021/12/31 03:06:23;;;;;;;3.78;2.13;;;;;;;12.04;100.00;100775.28;4989306;28;20050;-66
2021/12/31 03:08:48;;;;;;;3.63;2.00;;;;;;;12.02;100.00;100779.78;4988790;28;20398;-66
2021/12/31 03:11:16;;;;;;;4.20;2.33;;;;;;;12.04;100.00;100774.41;4993471;28;20026;-66
2021/12/31 03:13:43;;;;;;;6.90;2.22;;;;;;;12.01;100.00;100775.34;4991668;28;20026;-66
2021/12/31 03:16:09;;;;;;;4.97;2.35;;;;;;;11.99;100.00;100776.31;4989112;28;20105;-66
2021/12/31 03:18:36;;;;;;;3.55;2.20;;;;;;;12.01;100.00;100774.50;4992000;28;20494;-66
2021/12/31 03:21:06;;;;;;;5.25;2.17;;;;;;;12.00;100.00;100775.41;4989824;28;20467;-66
2021/12/31 03:23:32;;;;;;;8.25;2.80;;;;;;;11.96;100.00;100781.75;4990589;28;20121;-66
2021/12/31 03:25:59;;;;;;;5.82;2.60;;;;;;;11.95;100.00;100786.19;4988615;28;20115;-65
2021/12/31 03:28:25;;;;;;;6.00;2.80;;;;;;;11.94;100.00;100785.31;4988150;28;20054;-65
2021/12/31 03:30:51;;;;;;;5.07;2.75;;;;;;;11.92;100.00;100783.59;4992255;28;20120;-65
2021/12/31 03:33:17;;;;;;;5.38;2.72;;;;;;;11.91;100.00;100781.84;4988132;28;20550;-65
2021/12/31 03:35:42;;;;;;;4.93;2.58;;;;;;;11.86;100.00;100770.44;4990712;28;20045;-65
2021/12/31 03:38:09;;;;;;;4.72;2.65;;;;;;;11.87;100.00;100777.53;4999127;28;20112;-65
2021/12/31 03:40:34;;;;;;;7.57;2.60;;;;;;;11.87;100.00;100780.19;4989258;28;20427;-65
2021/12/31 03:43:00;;;;;;;5.85;3.15;;;;;;;11.85;100.00;100776.66;4991871;28;20137;-65
2021/12/31 03:45:26;;;;;;;6.78;2.92;;;;;;;11.83;100.00;100789.16;4989382;28;20482;-66
2021/12/31 03:47:51;;;;;;;4.72;2.80;;;;;;;11.83;100.00;100781.16;4989510;28;20161;-66
2021/12/31 03:50:17;;;;;;;4.45;2.63;;;;;;;11.83;100.00;100781.16;4989539;28;20101;-66
2021/12/31 03:52:42;;;;;;;5.07;2.70;;;;;;;11.80;100.00;100783.91;4992038;28;20494;-66
2021/12/31 03:55:10;;;;;;;5.30;3.00;;;;;;;11.76;100.00;100780.44;4989332;28;20026;-66
2021/12/31 03:57:35;;;;;;;14.73;4.10;;;;;;;11.71;100.00;100781.50;4989375;28;20041;-66
2021/12/31 04:00:04;;;;;;;9.73;3.00;;;;;;;11.71;100.00;100781.50;4990064;28;20375;-65
2021/12/31 04:02:30;;;;;;;6.57;2.50;;;;;;;11.69;100.00;100788.63;4989693;28;20121;-65
2021/12/31 04:04:55;;;;;;;6.93;3.17;;;;;;;11.63;100.00;100787.00;4991866;28;20236;-65
2021/12/31 04:07:21;;;;;;;6.75;2.50;;;;;;;11.56;100.00;100782.72;4994655;28;20375;-65
2021/12/31 04:09:47;;;;;;;6.28;2.47;;;;;;;11.50;100.00;100781.97;4992214;28;20027;-65
2021/12/31 04:12:13;;;;;;;7.47;3.08;;;;;;;11.47;100.00;100782.03;5000050;28;20081;-65
2021/12/31 04:14:39;;;;;;;6.05;2.85;;;;;;;11.48;100.00;100781.16;4995110;28;20034;-65
2021/12/31 04:17:04;;;;;;;5.28;2.70;;;;;;;11.51;100.00;100783.72;4991680;28;20026;-65
2021/12/31 04:19:30;;;;;;;4.93;2.45;;;;;;;11.54;100.00;100768.56;4994799;28;20085;-65
2021/12/31 04:21:56;;;;;;;5.93;2.85;;;;;;;11.50;100.00;100760.66;5002611;28;20030;-65
2021/12/31 04:24:52;;;;;;;11.45;3.00;;;;;;;11.42;100.00;100757.28;5004169;28;20038;-65
2021/12/31 04:27:16;;;;;;;16.52;4.70;;;;;;;11.40;100.00;100764.47;5010543;28;20029;-65
2021/12/31 04:29:49;;;;;;;13.77;3.78;;;;;;;11.36;100.00;100760.13;5008861;28;20042;-65
2021/12/31 04:32:14;;;;;;;13.05;3.78;;;;;;;11.37;100.00;100760.09;4992101;28;20109;-65
2021/12/31 04:34:39;;;;;;;13.55;3.47;;;;;;;11.34;100.00;100764.59;4991217;28;20125;-65
2021/12/31 04:37:05;;;;;;;8.75;3.13;;;;;;;11.29;100.00;100763.84;4994036;28;20022;-65
2021/12/31 04:39:30;;;;;;;14.02;4.05;;;;;;;11.25;100.00;100756.84;4992627;28;20025;-66
2021/12/31 04:41:56;;;;;;;13.52;3.45;;;;;;;11.17;100.00;100734.84;5004650;28;20386;-66
2021/12/31 04:44:21;;;;;;;11.95;3.78;;;;;;;11.22;100.00;100756.91;4993502;28;20037;-66
2021/12/31 04:46:46;;;;;;;6.22;2.85;;;;;;;11.19;100.00;100754.31;4998369;28;20030;-65
2021/12/31 04:49:12;;;;;;;5.32;2.80;;;;;;;11.16;100.00;100749.06;4991150;28;20022;-65
2021/12/31 04:51:37;;;;;;;19.15;3.85;;;;;;;11.11;100.00;100753.59;4998303;28;20022;-65
2021/12/31 04:54:03;;;;;;;54.03;9.15;;;;;;;11.11;100.00;100756.28;4993649;28;20559;-65
2021/12/31 04:56:28;;;;;;;11.18;4.25;;;;;;;11.15;100.00;100757.97;5011584;28;20026;-65
2021/12/31 04:58:54;;;;;;;20.08;5.45;;;;;;;11.13;100.00;100759.78;5008458;28;20037;-65
2021/12/31 05:01:21;;;;;;;10.88;3.55;;;;;;;11.08;100.00;100756.34;4999146;28;20062;-65
2021/12/31 05:03:47;;;;;;;8.45;4.05;;;;;;;11.03;100.00;100753.81;4993503;28;20026;-65
2021/12/31 05:06:13;;;;;;;12.52;4.32;;;;;;;10.96;100.00;100753.94;4993704;28;20133;-65
2021/12/31 05:08:39;;;;;;;12.10;4.60;;;;;;;10.92;100.00;100750.50;4989207;28;20601;-65
2021/12/31 05:11:04;;;;;;;13.27;3.97;;;;;;;10.88;100.00;100755.91;4992539;28;20053;-65
2021/12/31 05:13:30;;;;;;;7.00;3.72;;;;;;;10.77;100.00;100760.59;4990269;28;20041;-65
2021/12/31 05:16:01;;;;;;;5.40;2.40;;;;;;;10.69;100.00;100762.56;4989462;28;20053;-65
2021/12/31 05:18:26;;;;;;;6.78;2.42;;;;;;;10.51;100.00;100746.06;4999936;28;20507;-65
2021/12/31 05:20:52;;;;;;;4.63;2.72;;;;;;;10.44;100.00;100757.72;5009900;28;20305;-65
2021/12/31 05:23:17;;;;;;;3.97;2.40;;;;;;;10.31;100.00;100756.22;5003840;28;20026;-65
2021/12/31 05:25:43;;;;;;;4.90;2.30;;;;;;;10.20;100.00;100763.53;4990866;28;20129;-65
2021/12/31 05:28:08;;;;;;;3.03;2.00;;;;;;;10.10;100.00;100751.31;4991487;28;20018;-65
2021/12/31 05:30:33;;;;;;;5.47;2.55;;;;;;;10.11;100.00;100747.78;4999604;28;20022;-65
2021/12/31 05:32:59;;;;;;;6.53;2.72;;;;;;;10.17;100.00;100742.34;4991371;28;20234;-65
2021/12/31 05:35:24;;;;;;;6.93;2.67;;;;;;;10.21;100.00;100744.00;4993601;28;20030;-65
2021/12/31 05:37:50;;;;;;;6.65;2.20;;;;;;;10.26;100.00;100750.13;4989601;28;20037;-65
2021/12/31 05:40:15;;;;;;;7.95;3.30;;;;;;;10.31;100.00;100756.22;4990130;28;20026;-66
2021/12/31 05:42:41;;;;;;;10.20;3.53;;;;;;;10.37;100.00;100752.56;4999372;28;20026;-66
2021/12/31 05:45:07;;;;;;;12.45;3.85;;;;;;;10.42;100.00;100750.69;4990290;28;20121;-66
2021/12/31 05:47:32;;;;;;;11.15;4.50;;;;;;;10.45;100.00;100747.97;4993299;28;20066;-66
2021/12/31 05:49:58;;;;;;;13.45;4.63;;;;;;;10.50;100.00;100746.09;4990175;28;20026;-66
2021/12/31 05:52:23;;;;;;;9.70;4.43;;;;;;;10.56;100.00;100743.28;4990836;28;20022;-66
2021/12/31 05:54:48;;;;;;;6.88;3.45;;;;;;;10.57;100.00;100737.97;4993710;28;20030;-66
2021/12/31 05:57:14;;;;;;;9.70;4.82;;;;;;;10.54;100.00;100727.38;4997112;28;20565;-66
2021/12/31 05:59:39;;;;;;;14.00;5.13;;;;;;;10.51;100.00;100735.41;4989799;28;20561;-66
2021/12/31 06:02:05;;;;;;;11.77;4.72;;;;;;;10.48;100.00;100727.50;4988138;28;20116;-66
2021/12/31 06:04:30;;;;;;;9.20;4.03;;;;;;;10.42;100.00;100732.06;4992728;28;20022;-66
2021/12/31 06:06:56;;;;;;;10.88;3.63;;;;;;;10.35;100.00;100727.78;5004647;28;20053;-66
2021/12/31 06:09:21;;;;;;;8.45;4.05;;;;;;;10.29;100.00;100728.81;4972747;28;20022;-66
2021/12/31 06:11:47;;;;;;;8.35;4.22;;;;;;;10.33;100.00;100729.59;4990051;28;20022;-66
2021/12/31 06:14:12;;;;;;;8.10;4.63;;;;;;;10.32;100.00;100735.84;4991910;28;20471;-66
2021/12/31 06:16:43;;;;;;;8.07;3.88;;;;;;;10.29;100.00;100736.78;4989132;28;20550;-66
2021/12/31 06:19:10;;;;;;;7.60;4.00;;;;;;;10.25;100.00;100743.06;4991360;28;20501;-66
2021/12/31 06:21:37;;;;;;;10.55;3.78;;;;;;;10.22;100.00;100734.25;4990426;28;20022;-66
2021/12/31 06:24:03;;;;;;;16.27;5.65;;;;;;;10.13;100.00;100724.66;4990142;28;20033;-66
2021/12/31 06:26:29;;;;;;;9.82;4.10;;;;;;;10.12;100.00;100720.28;4992741;28;20034;-66
2021/12/31 06:28:54;;;;;;;13.93;4.30;;;;;;;10.16;100.00;100727.31;4988986;28;20104;-66
2021/12/31 06:31:21;;;;;;;12.85;4.53;;;;;;;10.18;100.00;100727.28;4998434;28;20072;-66
2021/12/31 06:33:46;;;;;;;10.45;5.20;;;;;;;10.19;100.00;100729.00;5003111;28;20470;-66
2021/12/31 06:36:11;;;;;;;10.27;5.20;;;;;;;10.15;100.00;100724.63;4991349;28;20113;-66
2021/12/31 06:38:37;;;;;;;12.63;6.40;;;;;;;10.16;100.00;100727.31;4992142;28;20045;-66
2021/12/31 06:41:02;;;;;;;16.15;7.88;;;;;;;10.18;100.00;100738.75;4990285;28;20022;-66
2021/12/31 06:43:28;;;;;;;16.40;8.25;;;;;;;10.20;100.00;100734.28;4990612;28;20033;-66
2021/12/31 06:45:53;;;;;;;16.70;8.27;;;;;;;10.23;100.00;100736.88;4992210;28;20487;-66
2021/12/31 06:48:19;;;;;;;20.92;6.65;;;;;;;10.21;100.00;100743.16;5000414;28;20029;-66
2021/12/31 06:50:44;;;;;;;12.75;5.85;;;;;;;10.23;100.00;100746.66;4990662;28;20056;-66
2021/12/31 06:53:09;;;;;;;13.30;6.05;;;;;;;10.20;100.00;100741.38;4994980;28;20026;-66
2021/12/31 06:55:35;;;;;;;14.23;4.80;;;;;;;10.17;100.00;100752.06;4988517;28;20026;-66
2021/12/31 06:58:01;;;;;;;7.82;4.90;;;;;;;10.19;100.00;100756.47;4989918;28;20043;-66
2021/12/31 07:00:26;;;;;;;9.55;4.90;;;;;;;10.19;100.00;100759.13;4998976;28;20049;-66
2021/12/31 07:03:07;;;;;;;9.52;4.45;;;;;;;10.20;100.00;100758.22;4998801;28;20477;-65
2021/12/31 07:05:32;;;;;;;9.02;4.32;;;;;;;10.16;100.00;100747.69;4989076;28;20130;-65
2021/12/31 07:07:58;;;;;;;10.98;4.30;;;;;;;10.21;100.00;100754.63;4992169;28;20528;-65
2021/12/31 07:10:23;;;;;;;5.70;3.58;;;;;;;10.20;100.00;100763.53;4989338;28;20038;-65
2021/12/31 07:12:48;;;;;;;8.80;3.95;;;;;;;10.18;100.00;100760.03;4991759;28;20471;-65
2021/12/31 07:15:14;;;;;;;8.50;4.45;;;;;;;10.12;100.00;100749.53;4989709;28;20081;-65
2021/12/31 07:17:39;;;;;;;10.38;4.68;;;;;;;10.07;100.00;100751.34;4991160;28;20105;-65
2021/12/31 07:20:05;;;;;;;18.15;4.50;;;;;;;10.00;100.00;100739.06;4990243;28;20018;-66
2021/12/31 07:22:33;;;;;;;6.97;3.67;;;;;;;9.99;100.00;100757.72;4990193;28;20068;-66
2021/12/31 07:24:59;;;;;;;7.18;4.15;;;;;;;9.92;100.00;100762.25;4991236;28;20502;-66
2021/12/31 07:27:24;;;;;;;8.02;4.20;;;;;;;9.85;100.00;100770.38;4997047;28;20030;-66
2021/12/31 07:29:50;;;;;;;7.05;3.50;;;;;;;9.77;100.00;100767.84;4990567;28;20023;-66
2021/12/31 07:32:15;;;;;;;4.40;2.80;;;;;;;9.67;100.00;100770.69;4989043;28;20041;-66
2021/12/31 07:34:40;;;;;;;7.13;2.65;;;;;;;9.60;100.00;100769.94;4999670;28;20030;-66
2021/12/31 07:37:06;;;;;;;4.35;2.80;;;;;;;9.60;100.00;100774.34;4989183;28;20113;-66
2021/12/31 07:39:33;;;;;;;3.15;1.92;;;;;;;9.56;100.00;100778.84;5001137;28;20474;-66
2021/12/31 07:41:59;;;;;;;9.60;2.42;;;;;;;9.51;100.00;100769.19;4993663;28;20391;-66
2021/12/31 07:44:24;;;;;;;8.50;2.67;;;;;;;9.48;100.00;100785.16;4992065;28;20084;-66
2021/12/31 07:46:50;;;;;;;4.40;2.67;;;;;;;9.49;100.00;100793.09;4993701;28;20049;-66
2021/12/31 07:49:15;;;;;;;4.40;2.00;;;;;;;9.42;100.00;100794.13;4994812;28;20438;-66
2021/12/31 07:51:40;;;;;;;3.53;1.92;;;;;;;9.29;100.00;100781.94;4991247;28;20335;-66
2021/12/31 07:54:06;;;;;;;3.35;1.98;;;;;;;9.33;100.00;100786.28;4996415;28;20033;-66
2021/12/31 07:56:31;;;;;;;6.93;1.92;;;;;;;9.37;100.00;100793.31;4997394;28;20022;-66
2021/12/31 07:58:57;;;;;;;7.90;2.40;;;;;;;9.36;100.00;100791.53;4991654;28;20463;-66
2021/12/31 08:01:22;;;;;;;18.75;2.22;;;;;;;9.40;100.00;100787.97;4991222;28;20040;-66
2021/12/31 08:03:48;;;;;;;2.53;1.65;;;;;;;9.61;100.00;100803.53;4992334;28;20031;-66
2021/12/31 08:06:13;;;;;;;2.83;1.80;;;;;;;9.77;100.00;100815.66;4998138;28;20042;-66
2021/12/31 08:08:38;;;;;;;8.13;1.98;;;;;;;9.82;100.00;100813.81;4994531;28;20030;-66
2021/12/31 08:11:04;;;;;;;4.65;2.10;;;;;;;9.87;100.00;100817.25;4992030;28;20029;-66
2021/12/31 08:13:29;;;;;;;6.72;1.98;;;;;;;9.90;100.00;100822.53;5002142;28;20115;-66
2021/12/31 08:15:58;;;;;;;5.28;2.70;;;;;;;10.02;100.00;100826.75;5010766;28;20112;-66
2021/12/31 08:18:23;;;;;;;5.95;2.95;;;;;;;10.08;100.00;100813.41;4999994;28;20072;-66
2021/12/31 08:20:49;;;;;;;6.95;3.33;;;;;;;10.08;100.00;100808.94;4993788;28;20108;-66
2021/12/31 08:23:15;;;;;;;6.40;3.22;;;;;;;10.13;100.00;100825.69;4992045;28;20500;-66
2021/12/31 08:25:41;;;;;;;8.45;3.70;;;;;;;10.17;100.00;100824.75;4994981;28;20113;-66
2021/12/31 08:28:07;;;;;;;7.57;3.72;;;;;;;10.26;100.00;100813.91;4991824;28;20030;-66
2021/12/31 08:30:33;;;;;;;12.90;4.57;;;;;;;10.49;100.00;100811.69;4993369;28;20037;-66
2021/12/31 08:32:58;;;;;;;8.68;4.00;;;;;;;10.72;100.00;100794.41;4986624;28;20109;-66
2021/12/31 08:35:24;;;;;;;8.50;4.10;;;;;;;10.90;100.00;100794.03;4991838;28;20034;-66
2021/12/31 08:37:50;;;;;;;10.73;5.47;;;;;;;11.11;100.00;100793.53;4992577;28;20477;-65
2021/12/31 08:40:15;;;;;;;16.38;7.22;;;;;;;11.23;100.00;100783.50;5002389;28;20072;-65
2021/12/31 08:42:41;;;;;;;21.95;10.25;;;;;;;11.25;100.00;100780.81;5007147;28;20395;-65
2021/12/31 08:45:07;;;;;;;22.20;10.95;;;;;;;11.30;100.00;100768.25;4999271;28;20042;-65
2021/12/31 08:47:33;;;;;;;13.38;7.22;;;;;;;11.35;100.00;100774.38;4990561;28;20092;-65
2021/12/31 08:49:58;;;;;;;14.85;6.15;;;;;;;11.38;100.00;100771.63;4991377;28;20037;-65
2021/12/31 08:52:23;;;;;;;13.65;6.50;;;;;;;11.58;100.00;100769.34;4994322;28;20154;-65
2021/12/31 08:54:49;;;;;;;17.70;8.55;;;;;;;11.74;100.00;100762.75;4991977;28;20034;-65
2021/12/31 08:57:15;;;;;;;13.02;8.13;;;;;;;12.02;100.00;100755.78;4993196;28;20089;-65
2021/12/31 08:59:41;;;;;;;19.95;9.25;;;;;;;12.89;100.00;100745.25;4991771;28;20028;-65
2021/12/31 09:02:06;;;;;;;12.88;8.60;;;;;;;14.21;100.00;100747.97;4993815;28;20113;-65
2021/12/31 09:04:32;;;;;;;16.25;9.48;;;;;;;15.35;97.20;100741.84;5010150;28;20025;-65
2021/12/31 09:06:58;;;;;;;17.95;10.10;;;;;;;17.09;88.80;100736.75;5007054;28;20099;-65
2021/12/31 09:09:23;;;;;;;14.82;8.60;;;;;;;18.98;78.12;100738.56;4996397;28;20030;-66
2021/12/31 09:11:49;;;;;;;12.75;6.95;;;;;;;20.45;66.87;100733.50;4991583;28;20166;-66
2021/12/31 09:14:14;;;;;;;14.13;5.85;;;;;;;21.32;60.49;100743.25;4993496;28;20030;-66
2021/12/31 09:16:40;;;;;;;7.63;4.07;;;;;;;22.08;55.48;100750.75;4990761;28;20533;-66
2021/12/31 09:19:05;;;;;;;4.20;3.03;;;;;;;22.02;52.69;100757.47;4993374;28;20026;-67
2021/12/31 09:21:30;;;;;;;5.95;3.20;;;;;;;22.67;50.85;100752.91;4993427;28;20029;-67
2021/12/31 09:23:56;;;;;;;5.10;2.88;;;;;;;23.43;48.76;100741.00;4990736;28;20035;-67
2021/12/31 09:26:21;;;;;;;4.93;2.88;;;;;;;24.07;46.87;100741.63;4999653;28;20034;-67
2021/12/31 09:28:47;;;;;;;5.85;3.00;;;;;;;24.64;45.16;100745.25;4992605;28;20037;-67
2021/12/31 09:31:13;;;;;;;5.53;2.97;;;;;;;24.77;44.15;100734.28;4992728;28;20019;-67
2021/12/31 09:33:39;;;;;;;4.18;2.38;;;;;;;24.60;45.13;100746.47;4991903;28;20089;-67
2021/12/31 09:36:04;;;;;;;3.97;2.13;;;;;;;24.62;44.76;100739.94;4992359;28;20072;-67
2021/12/31 09:38:30;;;;;;;4.65;2.28;;;;;;;24.79;44.57;100735.03;4990073;28;20034;-67
2021/12/31 09:40:55;;;;;;;3.53;2.03;;;;;;;24.98;44.06;100752.50;4993197;28;20486;-67
2021/12/31 09:43:21;;;;;;;4.03;2.45;;;;;;;25.18;43.22;100765.38;4990457;28;20037;-68
2021/12/31 09:45:49;;;;;;;3.63;1.98;;;;;;;24.82;43.24;100762.88;4993318;28;20022;-68
2021/12/31 09:48:17;;;;;;;2.53;1.42;;;;;;;24.53;44.40;100767.84;4990430;28;20052;-68
2021/12/31 09:50:47;;;;;;;2.85;1.67;;;;;;;24.31;44.88;100761.50;4990329;28;20026;-68
2021/12/31 09:53:18;;;;;;;3.25;1.75;;;;;;;24.18;45.34;100749.81;4980281;28;20080;-68
2021/12/31 09:55:51;;;;;;;2.38;1.50;;;;;;;24.37;45.15;100744.69;5009610;28;20057;-68
2021/12/31 09:58:17;;;;;;;;;;;;;;;24.51;44.97;100747.22;5003058;28;20026;-68
2021/12/31 10:00:46;;;;;;;5.07;2.05;;;;;;;24.92;44.70;100752.13;4990197;28;20012;-68
2021/12/31 10:03:25;;;;;;;2.15;1.42;;;;;;;24.92;44.89;100753.00;4989433;28;20438;-68
2021/12/31 10:06:11;;;;;;;3.53;1.80;;;;;;;25.32;43.48;100756.09;4990687;28;20291;-68
2021/12/31 10:08:41;;;;;;;7.38;1.77;;;;;;;25.41;43.75;100752.63;4989550;28;20223;-68
2021/12/31 10:11:18;;;;;;;2.38;1.45;;;;;;;24.65;44.78;100739.69;4984588;28;20034;-68
2021/12/31 10:13:52;;;;;;;3.60;1.42;;;;;;;23.92;46.59;100748.22;5008255;28;20025;-68
2021/12/31 10:16:36;;;;;;;3.00;1.75;;;;;;;23.95;46.81;100735.25;5006405;28;20030;-68
2021/12/31 10:19:06;;;;;;;4.07;2.10;;;;;;;24.37;45.88;100720.22;5010158;28;20022;-68
2021/12/31 10:21:35;;;;;;;7.00;2.22;;;;;;;24.65;45.12;100707.03;5006153;28;20021;-68
2021/12/31 10:24:36;;;;;;;6.05;2.80;;;;;;;24.80;45.30;100710.41;4997838;28;20109;-68
2021/12/31 10:27:23;;;;;;;3.30;1.60;;;;;;;25.10;45.29;100729.72;4993014;28;20026;-68
2021/12/31 10:29:52;;;;;;;7.30;1.75;;;;;;;25.51;44.46;100740.84;4997698;28;20034;-68
2021/12/31 10:32:19;;;;;;;3.30;1.83;;;;;;;25.25;44.49;100719.44;4989954;28;20117;-68
2021/12/31 10:34:44;;;;;;;4.20;1.88;;;;;;;25.37;44.86;100726.66;4997970;28;20468;-68
2021/12/31 10:37:23;;;;;;;2.75;1.30;;;;;;;25.34;44.04;100726.84;4989338;28;20069;-68
2021/12/31 10:39:57;;;;;;;3.72;1.17;;;;;;;24.79;45.35;100721.44;4999455;28;20034;-68
2021/12/31 10:42:28;;;;;;;3.45;1.67;;;;;;;24.60;46.73;100692.06;5008732;28;20474;-68
2021/12/31 10:44:54;;;;;;;3.88;2.13;;;;;;;24.81;46.27;100690.38;5008862;28;20438;-68
2021/12/31 10:47:22;;;;;;;11.27;5.07;;;;;;;25.04;46.37;100689.38;5009606;28;20049;-68
2021/12/31 10:50:00;;;;;;;7.18;3.03;;;;;;;25.16;45.47;100695.66;5000340;28;20093;-68
2021/12/31 10:52:33;;;;;;;6.15;2.83;;;;;;;24.80;46.66;100694.09;4970933;28;20033;-68
2021/12/31 10:55:03;;;;;;;5.07;2.72;;;;;;;24.25;47.81;100703.00;4993673;28;20204;-68
2021/12/31 10:57:37;;;;;;;3.20;1.70;;;;;;;23.77;48.41;100695.03;4994190;28;20051;-66
2021/12/31 11:00:08;;;;;;;3.75;1.70;;;;;;;22.69;52.27;100696.72;4989544;28;20026;-67
2021/12/31 11:02:38;;;;;;;3.03;1.50;;;;;;;21.54;54.79;100697.56;4992538;28;20030;-68
2021/12/31 11:05:05;;;;;;;4.10;1.75;;;;;;;20.60;59.47;100700.97;5002048;28;20086;-69
2021/12/31 11:07:31;;;;;;;3.42;1.60;;;;;;;20.64;61.52;100680.88;5000220;28;20438;-68
2021/12/31 11:10:04;;;;;;;4.55;1.80;;;;;;;21.29;60.19;100676.66;4988254;28;20588;-68
2021/12/31 11:12:30;;;;;;;3.40;1.98;;;;;;;22.52;55.92;100680.75;4988989;28;20441;-68
2021/12/31 11:14:55;;;;;;;3.40;1.90;;;;;;;23.12;53.29;100675.47;4993832;28;20628;-68
2021/12/31 11:17:22;;;;;;;5.53;2.25;;;;;;;23.15;52.81;100664.38;4993122;28;20094;-68
2021/12/31 11:19:49;;;;;;;6.05;2.45;;;;;;;22.45;54.29;100665.91;4995954;28;20478;-68